sensor_id;sensor_type;location;lat;lon;timestamp;temperature;humidity
80577;DHT22;69937;52.420;10.538;2023-07-30T00:03:48;16.90;72.80
80577;DHT22;69937;52.420;10.538;2023-07-30T00:08:48;16.90;73.00
80577;DHT22;69937;52.420;10.538;2023-07-30T00:13:49;17.00;73.00
80577;DHT22;69937;52.420;10.538;2023-07-30T00:18:50;17.00;72.50
80577;DHT22;69937;52.420;10.538;2023-07-30T00:23:50;17.00;73.50
80577;DHT22;69937;52.420;10.538;2023-07-30T00:28:51;17.10;73.70
80577;DHT22;69937;52.420;10.538;2023-07-30T00:33:51;17.00;73.40
80577;DHT22;69937;52.420;10.538;2023-07-30T00:38:52;17.00;72.90
80577;DHT22;69937;52.420;10.538;2023-07-30T00:43:53;17.00;72.80
80577;DHT22;69937;52.420;10.538;2023-07-30T00:48:54;17.00;73.00
80577;DHT22;69937;52.420;10.538;2023-07-30T00:53:54;17.00;72.90
80577;DHT22;69937;52.420;10.538;2023-07-30T00:58:55;17.00;72.80
80577;DHT22;69937;52.420;10.538;2023-07-30T01:03:56;17.00;72.50
80577;DHT22;69937;52.420;10.538;2023-07-30T01:08:57;17.00;72.50
80577;DHT22;69937;52.420;10.538;2023-07-30T01:13:57;17.10;72.50
80577;DHT22;69937;52.420;10.538;2023-07-30T01:18:59;17.10;72.50
80577;DHT22;69937;52.420;10.538;2023-07-30T01:24:01;17.00;72.60
80577;DHT22;69937;52.420;10.538;2023-07-30T01:29:03;17.00;72.90
80577;DHT22;69937;52.420;10.538;2023-07-30T01:34:07;17.00;73.20
80577;DHT22;69937;52.420;10.538;2023-07-30T01:39:09;16.90;73.50
80577;DHT22;69937;52.420;10.538;2023-07-30T01:44:10;16.90;73.50
80577;DHT22;69937;52.420;10.538;2023-07-30T01:49:10;16.90;73.60
80577;DHT22;69937;52.420;10.538;2023-07-30T01:54:11;16.90;73.70
80577;DHT22;69937;52.420;10.538;2023-07-30T01:59:11;16.80;73.70
80577;DHT22;69937;52.420;10.538;2023-07-30T02:04:12;16.90;73.80
80577;DHT22;69937;52.420;10.538;2023-07-30T02:09:12;16.80;74.00
80577;DHT22;69937;52.420;10.538;2023-07-30T02:14:13;16.80;74.10
80577;DHT22;69937;52.420;10.538;2023-07-30T02:19:13;16.80;74.40
80577;DHT22;69937;52.420;10.538;2023-07-30T02:24:14;16.90;74.50
80577;DHT22;69937;52.420;10.538;2023-07-30T02:29:14;16.90;74.60
80577;DHT22;69937;52.420;10.538;2023-07-30T02:34:15;16.90;74.80
80577;DHT22;69937;52.420;10.538;2023-07-30T02:39:16;16.90;75.00
80577;DHT22;69937;52.420;10.538;2023-07-30T02:44:16;16.90;75.10
80577;DHT22;69937;52.420;10.538;2023-07-30T02:49:17;16.90;75.20
80577;DHT22;69937;52.420;10.538;2023-07-30T02:54:17;16.90;75.40
80577;DHT22;69937;52.420;10.538;2023-07-30T02:59:21;16.90;75.70
80577;DHT22;69937;52.420;10.538;2023-07-30T03:04:21;16.80;75.80
80577;DHT22;69937;52.420;10.538;2023-07-30T03:09:22;16.80;76.00
80577;DHT22;69937;52.420;10.538;2023-07-30T03:14:22;16.70;76.20
80577;DHT22;69937;52.420;10.538;2023-07-30T03:19:23;16.70;76.20
80577;DHT22;69937;52.420;10.538;2023-07-30T03:24:23;16.70;76.30
80577;DHT22;69937;52.420;10.538;2023-07-30T03:29:24;16.60;76.50
80577;DHT22;69937;52.420;10.538;2023-07-30T03:34:24;16.50;76.60
80577;DHT22;69937;52.420;10.538;2023-07-30T03:39:25;16.50;76.60
80577;DHT22;69937;52.420;10.538;2023-07-30T03:44:26;16.50;76.70
80577;DHT22;69937;52.420;10.538;2023-07-30T03:49:27;16.40;76.60
80577;DHT22;69937;52.420;10.538;2023-07-30T03:54:27;16.40;76.50
80577;DHT22;69937;52.420;10.538;2023-07-30T03:59:28;16.40;76.40
80577;DHT22;69937;52.420;10.538;2023-07-30T04:04:28;16.40;76.20
80577;DHT22;69937;52.420;10.538;2023-07-30T04:09:29;16.40;76.20
80577;DHT22;69937;52.420;10.538;2023-07-30T04:14:30;16.40;76.20
80577;DHT22;69937;52.420;10.538;2023-07-30T04:19:30;16.30;76.00
80577;DHT22;69937;52.420;10.538;2023-07-30T04:24:31;16.20;75.80
80577;DHT22;69937;52.420;10.538;2023-07-30T04:29:31;16.20;76.00
80577;DHT22;69937;52.420;10.538;2023-07-30T04:34:31;16.20;75.80
80577;DHT22;69937;52.420;10.538;2023-07-30T04:39:32;16.10;76.00
80577;DHT22;69937;52.420;10.538;2023-07-30T04:44:33;16.20;75.70
80577;DHT22;69937;52.420;10.538;2023-07-30T04:49:33;16.20;75.20
80577;DHT22;69937;52.420;10.538;2023-07-30T04:54:34;16.20;74.70
80577;DHT22;69937;52.420;10.538;2023-07-30T04:59:36;16.20;74.40
80577;DHT22;69937;52.420;10.538;2023-07-30T05:04:37;16.30;74.10
80577;DHT22;69937;52.420;10.538;2023-07-30T05:09:37;16.40;74.00
80577;DHT22;69937;52.420;10.538;2023-07-30T05:14:38;16.40;74.00
80577;DHT22;69937;52.420;10.538;2023-07-30T05:19:38;16.40;73.80
80577;DHT22;69937;52.420;10.538;2023-07-30T05:24:39;16.50;73.60
80577;DHT22;69937;52.420;10.538;2023-07-30T05:29:39;16.60;73.60
80577;DHT22;69937;52.420;10.538;2023-07-30T05:34:40;16.70;73.10
80577;DHT22;69937;52.420;10.538;2023-07-30T05:39:40;16.80;72.60
80577;DHT22;69937;52.420;10.538;2023-07-30T05:44:41;17.00;72.40
80577;DHT22;69937;52.420;10.538;2023-07-30T05:49:41;17.00;72.40
80577;DHT22;69937;52.420;10.538;2023-07-30T05:54:42;17.20;72.10
80577;DHT22;69937;52.420;10.538;2023-07-30T05:59:42;17.20;72.00
80577;DHT22;69937;52.420;10.538;2023-07-30T06:04:43;17.20;72.40
80577;DHT22;69937;52.420;10.538;2023-07-30T06:09:44;17.30;72.20
80577;DHT22;69937;52.420;10.538;2023-07-30T06:14:45;17.30;72.60
80577;DHT22;69937;52.420;10.538;2023-07-30T06:19:46;17.50;72.00
80577;DHT22;69937;52.420;10.538;2023-07-30T06:24:46;17.60;72.10
80577;DHT22;69937;52.420;10.538;2023-07-30T06:29:47;17.80;71.90
80577;DHT22;69937;52.420;10.538;2023-07-30T06:34:47;18.00;70.90
80577;DHT22;69937;52.420;10.538;2023-07-30T06:39:48;18.00;69.30
80577;DHT22;69937;52.420;10.538;2023-07-30T06:44:48;17.80;69.10
80577;DHT22;69937;52.420;10.538;2023-07-30T06:49:49;17.90;69.90
80577;DHT22;69937;52.420;10.538;2023-07-30T06:54:50;18.00;69.80
80577;DHT22;69937;52.420;10.538;2023-07-30T06:59:50;18.10;69.70
80577;DHT22;69937;52.420;10.538;2023-07-30T07:04:51;18.20;67.90
80577;DHT22;69937;52.420;10.538;2023-07-30T07:09:51;18.30;67.50
80577;DHT22;69937;52.420;10.538;2023-07-30T07:14:52;18.50;66.90
80577;DHT22;69937;52.420;10.538;2023-07-30T07:19:52;18.70;67.90
80577;DHT22;69937;52.420;10.538;2023-07-30T07:24:53;18.90;67.10
80577;DHT22;69937;52.420;10.538;2023-07-30T07:29:54;19.00;65.90
80577;DHT22;69937;52.420;10.538;2023-07-30T07:34:54;19.20;65.30
80577;DHT22;69937;52.420;10.538;2023-07-30T07:39:55;19.30;63.80
80577;DHT22;69937;52.420;10.538;2023-07-30T07:44:56;19.50;63.30
80577;DHT22;69937;52.420;10.538;2023-07-30T07:49:56;19.50;62.60
80577;DHT22;69937;52.420;10.538;2023-07-30T07:54:57;19.70;60.60
80577;DHT22;69937;52.420;10.538;2023-07-30T07:59:57;19.90;59.00
80577;DHT22;69937;52.420;10.538;2023-07-30T08:04:58;19.90;58.10
80577;DHT22;69937;52.420;10.538;2023-07-30T08:09:58;19.90;56.70
80577;DHT22;69937;52.420;10.538;2023-07-30T08:14:59;19.90;56.70
80577;DHT22;69937;52.420;10.538;2023-07-30T08:19:59;20.00;56.90
80577;DHT22;69937;52.420;10.538;2023-07-30T08:25:00;20.00;56.20
80577;DHT22;69937;52.420;10.538;2023-07-30T08:30:01;20.30;56.70
80577;DHT22;69937;52.420;10.538;2023-07-30T08:35:02;20.50;57.50
80577;DHT22;69937;52.420;10.538;2023-07-30T08:40:03;20.60;56.70
80577;DHT22;69937;52.420;10.538;2023-07-30T08:45:06;20.80;54.00
80577;DHT22;69937;52.420;10.538;2023-07-30T08:50:08;20.90;55.20
80577;DHT22;69937;52.420;10.538;2023-07-30T08:55:10;21.00;54.80
80577;DHT22;69937;52.420;10.538;2023-07-30T09:00:12;21.10;54.50
80577;DHT22;69937;52.420;10.538;2023-07-30T09:05:15;21.20;54.60
80577;DHT22;69937;52.420;10.538;2023-07-30T09:10:15;21.40;55.90
80577;DHT22;69937;52.420;10.538;2023-07-30T09:15:16;21.60;54.50
80577;DHT22;69937;52.420;10.538;2023-07-30T09:20:17;21.50;54.50
80577;DHT22;69937;52.420;10.538;2023-07-30T09:25:18;21.50;55.30
80577;DHT22;69937;52.420;10.538;2023-07-30T09:30:23;21.80;53.50
80577;DHT22;69937;52.420;10.538;2023-07-30T09:35:25;22.10;53.20
80577;DHT22;69937;52.420;10.538;2023-07-30T09:40:34;22.30;54.10
80577;DHT22;69937;52.420;10.538;2023-07-30T09:45:36;22.30;53.10
80577;DHT22;69937;52.420;10.538;2023-07-30T09:50:37;22.50;53.10
80577;DHT22;69937;52.420;10.538;2023-07-30T09:55:38;22.50;52.60
80577;DHT22;69937;52.420;10.538;2023-07-30T10:00:38;22.50;52.70
80577;DHT22;69937;52.420;10.538;2023-07-30T10:05:39;22.70;53.40
80577;DHT22;69937;52.420;10.538;2023-07-30T10:10:41;22.70;51.50
80577;DHT22;69937;52.420;10.538;2023-07-30T10:15:43;22.70;51.80
80577;DHT22;69937;52.420;10.538;2023-07-30T10:20:52;22.80;52.60
80577;DHT22;69937;52.420;10.538;2023-07-30T10:25:54;22.70;51.50
80577;DHT22;69937;52.420;10.538;2023-07-30T10:30:59;22.60;52.90
80577;DHT22;69937;52.420;10.538;2023-07-30T10:35:59;22.60;52.90
80577;DHT22;69937;52.420;10.538;2023-07-30T10:41:12;22.60;53.30
80577;DHT22;69937;52.420;10.538;2023-07-30T10:46:14;22.30;53.00
80577;DHT22;69937;52.420;10.538;2023-07-30T10:51:16;22.00;54.00
80577;DHT22;69937;52.420;10.538;2023-07-30T10:56:21;21.90;53.80
80577;DHT22;69937;52.420;10.538;2023-07-30T11:01:24;21.50;55.60
80577;DHT22;69937;52.420;10.538;2023-07-30T11:06:27;21.30;55.30
80577;DHT22;69937;52.420;10.538;2023-07-30T11:11:27;21.20;56.00
80577;DHT22;69937;52.420;10.538;2023-07-30T11:16:28;21.10;55.90
80577;DHT22;69937;52.420;10.538;2023-07-30T11:21:29;21.10;56.30
80577;DHT22;69937;52.420;10.538;2023-07-30T11:26:29;21.00;56.50
80577;DHT22;69937;52.420;10.538;2023-07-30T11:31:30;21.10;56.10
80577;DHT22;69937;52.420;10.538;2023-07-30T11:36:31;21.10;57.20
80577;DHT22;69937;52.420;10.538;2023-07-30T11:41:33;21.40;56.70
80577;DHT22;69937;52.420;10.538;2023-07-30T11:46:33;21.90;56.00
80577;DHT22;69937;52.420;10.538;2023-07-30T11:51:36;21.60;56.40
80577;DHT22;69937;52.420;10.538;2023-07-30T11:56:36;21.30;57.10
80577;DHT22;69937;52.420;10.538;2023-07-30T12:01:37;21.70;56.10
80577;DHT22;69937;52.420;10.538;2023-07-30T12:06:51;22.00;54.80
80577;DHT22;69937;52.420;10.538;2023-07-30T12:11:58;21.90;56.10
80577;DHT22;69937;52.420;10.538;2023-07-30T12:16:59;21.80;56.50
80577;DHT22;69937;52.420;10.538;2023-07-30T12:22:00;22.00;55.10
80577;DHT22;69937;52.420;10.538;2023-07-30T12:27:01;22.10;54.90
80577;DHT22;69937;52.420;10.538;2023-07-30T12:32:02;22.30;55.20
80577;DHT22;69937;52.420;10.538;2023-07-30T12:37:02;22.50;53.20
80577;DHT22;69937;52.420;10.538;2023-07-30T12:42:03;22.30;54.40
80577;DHT22;69937;52.420;10.538;2023-07-30T12:47:04;22.20;54.40
80577;DHT22;69937;52.420;10.538;2023-07-30T12:52:05;22.00;54.00
80577;DHT22;69937;52.420;10.538;2023-07-30T12:57:06;22.20;53.70
80577;DHT22;69937;52.420;10.538;2023-07-30T13:02:06;23.10;53.30
80577;DHT22;69937;52.420;10.538;2023-07-30T13:07:07;24.00;51.00
80577;DHT22;69937;52.420;10.538;2023-07-30T13:12:08;24.40;50.20
80577;DHT22;69937;52.420;10.538;2023-07-30T13:17:08;24.40;50.20
80577;DHT22;69937;52.420;10.538;2023-07-30T13:22:09;24.40;49.80
80577;DHT22;69937;52.420;10.538;2023-07-30T13:27:09;24.20;50.60
80577;DHT22;69937;52.420;10.538;2023-07-30T13:32:11;25.00;50.20
80577;DHT22;69937;52.420;10.538;2023-07-30T13:37:11;25.10;48.80
80577;DHT22;69937;52.420;10.538;2023-07-30T13:42:12;25.00;48.80
80577;DHT22;69937;52.420;10.538;2023-07-30T13:47:12;25.40;48.30
80577;DHT22;69937;52.420;10.538;2023-07-30T13:52:13;25.50;49.00
80577;DHT22;69937;52.420;10.538;2023-07-30T13:57:24;25.70;46.70
80577;DHT22;69937;52.420;10.538;2023-07-30T14:02:24;25.60;47.20
80577;DHT22;69937;52.420;10.538;2023-07-30T14:07:25;25.80;46.50
80577;DHT22;69937;52.420;10.538;2023-07-30T14:12:26;25.20;47.60
80577;DHT22;69937;52.420;10.538;2023-07-30T14:17:26;25.50;46.80
80577;DHT22;69937;52.420;10.538;2023-07-30T14:22:27;25.70;46.70
80577;DHT22;69937;52.420;10.538;2023-07-30T14:27:27;25.50;46.20
80577;DHT22;69937;52.420;10.538;2023-07-30T14:32:28;24.90;47.00
80577;DHT22;69937;52.420;10.538;2023-07-30T14:37:29;24.50;48.20
80577;DHT22;69937;52.420;10.538;2023-07-30T14:42:29;25.20;48.20
80577;DHT22;69937;52.420;10.538;2023-07-30T14:47:30;25.50;46.80
80577;DHT22;69937;52.420;10.538;2023-07-30T14:52:30;25.10;46.80
80577;DHT22;69937;52.420;10.538;2023-07-30T14:57:31;24.40;47.80
80577;DHT22;69937;52.420;10.538;2023-07-30T15:02:33;23.80;48.40
80577;DHT22;69937;52.420;10.538;2023-07-30T15:07:34;23.50;49.20
80577;DHT22;69937;52.420;10.538;2023-07-30T15:12:35;23.00;49.90
80577;DHT22;69937;52.420;10.538;2023-07-30T15:17:36;23.00;50.70
80577;DHT22;69937;52.420;10.538;2023-07-30T15:22:36;23.20;49.40
80577;DHT22;69937;52.420;10.538;2023-07-30T15:27:37;23.20;49.10
80577;DHT22;69937;52.420;10.538;2023-07-30T15:32:42;23.40;49.20
80577;DHT22;69937;52.420;10.538;2023-07-30T15:37:43;23.40;49.80
80577;DHT22;69937;52.420;10.538;2023-07-30T15:42:45;23.00;50.10
80577;DHT22;69937;52.420;10.538;2023-07-30T15:47:46;22.60;50.70
80577;DHT22;69937;52.420;10.538;2023-07-30T15:52:46;22.30;50.70
80577;DHT22;69937;52.420;10.538;2023-07-30T15:57:47;21.90;51.50
80577;DHT22;69937;52.420;10.538;2023-07-30T16:02:48;21.70;51.40
80577;DHT22;69937;52.420;10.538;2023-07-30T16:07:48;21.50;51.80
80577;DHT22;69937;52.420;10.538;2023-07-30T16:12:49;21.40;51.80
80577;DHT22;69937;52.420;10.538;2023-07-30T16:17:49;21.30;51.50
80577;DHT22;69937;52.420;10.538;2023-07-30T16:22:50;20.80;51.90
80577;DHT22;69937;52.420;10.538;2023-07-30T16:27:50;20.60;51.90
80577;DHT22;69937;52.420;10.538;2023-07-30T16:32:51;20.60;51.90
80577;DHT22;69937;52.420;10.538;2023-07-30T16:37:51;20.50;51.60
80577;DHT22;69937;52.420;10.538;2023-07-30T16:42:52;20.50;51.80
80577;DHT22;69937;52.420;10.538;2023-07-30T16:47:52;20.60;51.90
80577;DHT22;69937;52.420;10.538;2023-07-30T16:52:53;20.70;52.50
80577;DHT22;69937;52.420;10.538;2023-07-30T16:57:53;20.70;52.50
80577;DHT22;69937;52.420;10.538;2023-07-30T17:02:54;20.70;52.70
80577;DHT22;69937;52.420;10.538;2023-07-30T17:07:56;20.70;53.00
80577;DHT22;69937;52.420;10.538;2023-07-30T17:12:56;20.70;53.50
80577;DHT22;69937;52.420;10.538;2023-07-30T17:17:57;20.70;53.40
80577;DHT22;69937;52.420;10.538;2023-07-30T17:22:57;20.60;53.50
80577;DHT22;69937;52.420;10.538;2023-07-30T17:27:58;20.60;54.30
80577;DHT22;69937;52.420;10.538;2023-07-30T17:32:59;20.50;54.30
80577;DHT22;69937;52.420;10.538;2023-07-30T17:37:59;20.50;54.30
80577;DHT22;69937;52.420;10.538;2023-07-30T17:43:00;20.60;54.50
80577;DHT22;69937;52.420;10.538;2023-07-30T17:48:00;20.50;54.50
80577;DHT22;69937;52.420;10.538;2023-07-30T17:53:01;20.50;54.40
80577;DHT22;69937;52.420;10.538;2023-07-30T17:58:01;20.40;54.70
80577;DHT22;69937;52.420;10.538;2023-07-30T18:03:02;20.40;54.90
80577;DHT22;69937;52.420;10.538;2023-07-30T18:08:03;20.30;54.70
80577;DHT22;69937;52.420;10.538;2023-07-30T18:13:04;20.30;55.00
80577;DHT22;69937;52.420;10.538;2023-07-30T18:18:05;20.20;55.10
80577;DHT22;69937;52.420;10.538;2023-07-30T18:23:07;20.00;55.40
80577;DHT22;69937;52.420;10.538;2023-07-30T18:28:07;20.00;55.60
80577;DHT22;69937;52.420;10.538;2023-07-30T18:33:08;19.70;58.10
80577;DHT22;69937;52.420;10.538;2023-07-30T18:38:08;19.00;63.40
80577;DHT22;69937;52.420;10.538;2023-07-30T18:43:09;18.60;65.60
80577;DHT22;69937;52.420;10.538;2023-07-30T18:48:09;18.40;65.90
80577;DHT22;69937;52.420;10.538;2023-07-30T18:53:10;18.30;66.50
80577;DHT22;69937;52.420;10.538;2023-07-30T18:58:11;18.20;66.20
80577;DHT22;69937;52.420;10.538;2023-07-30T19:03:11;18.20;66.60
80577;DHT22;69937;52.420;10.538;2023-07-30T19:08:12;18.20;66.60
80577;DHT22;69937;52.420;10.538;2023-07-30T19:13:13;18.10;66.30
80577;DHT22;69937;52.420;10.538;2023-07-30T19:18:14;18.10;66.80
80577;DHT22;69937;52.420;10.538;2023-07-30T19:23:14;18.10;66.90
80577;DHT22;69937;52.420;10.538;2023-07-30T19:28:15;18.00;67.70
80577;DHT22;69937;52.420;10.538;2023-07-30T19:33:17;18.00;67.90
80577;DHT22;69937;52.420;10.538;2023-07-30T19:38:18;18.10;69.10
80577;DHT22;69937;52.420;10.538;2023-07-30T19:43:20;17.80;70.70
80577;DHT22;69937;52.420;10.538;2023-07-30T19:48:23;17.50;70.10
80577;DHT22;69937;52.420;10.538;2023-07-30T19:53:24;17.50;70.50
80577;DHT22;69937;52.420;10.538;2023-07-30T19:58:29;17.50;70.70
80577;DHT22;69937;52.420;10.538;2023-07-30T20:03:31;17.50;71.40
80577;DHT22;69937;52.420;10.538;2023-07-30T20:08:32;17.40;71.90
80577;DHT22;69937;52.420;10.538;2023-07-30T20:13:33;17.20;72.30
80577;DHT22;69937;52.420;10.538;2023-07-30T20:18:34;17.20;72.80
80577;DHT22;69937;52.420;10.538;2023-07-30T20:23:34;17.00;73.00
80577;DHT22;69937;52.420;10.538;2023-07-30T20:28:35;16.90;73.60
80577;DHT22;69937;52.420;10.538;2023-07-30T20:33:36;16.80;73.50
80577;DHT22;69937;52.420;10.538;2023-07-30T20:38:36;16.70;73.30
80577;DHT22;69937;52.420;10.538;2023-07-30T20:43:37;16.60;74.30
80577;DHT22;69937;52.420;10.538;2023-07-30T20:48:42;16.60;74.00
80577;DHT22;69937;52.420;10.538;2023-07-30T20:53:43;16.50;74.50
80577;DHT22;69937;52.420;10.538;2023-07-30T20:58:43;16.40;74.30
80577;DHT22;69937;52.420;10.538;2023-07-30T21:03:44;16.20;74.30
80577;DHT22;69937;52.420;10.538;2023-07-30T21:08:44;16.00;74.90
80577;DHT22;69937;52.420;10.538;2023-07-30T21:13:45;16.00;75.10
80577;DHT22;69937;52.420;10.538;2023-07-30T21:18:45;16.00;75.20
80577;DHT22;69937;52.420;10.538;2023-07-30T21:23:46;16.00;74.70
80577;DHT22;69937;52.420;10.538;2023-07-30T21:28:47;16.00;74.30
80577;DHT22;69937;52.420;10.538;2023-07-30T21:33:47;15.80;74.70
80577;DHT22;69937;52.420;10.538;2023-07-30T21:38:48;15.80;74.90
80577;DHT22;69937;52.420;10.538;2023-07-30T21:43:48;15.80;75.00
80577;DHT22;69937;52.420;10.538;2023-07-30T21:48:49;15.80;75.00
80577;DHT22;69937;52.420;10.538;2023-07-30T21:53:49;15.80;75.00
80577;DHT22;69937;52.420;10.538;2023-07-30T21:58:50;15.80;74.80
80577;DHT22;69937;52.420;10.538;2023-07-30T22:03:51;15.80;74.70
80577;DHT22;69937;52.420;10.538;2023-07-30T22:08:52;15.80;74.80
80577;DHT22;69937;52.420;10.538;2023-07-30T22:13:53;15.80;74.70
80577;DHT22;69937;52.420;10.538;2023-07-30T22:18:53;15.80;74.70
80577;DHT22;69937;52.420;10.538;2023-07-30T22:23:54;15.80;75.00
80577;DHT22;69937;52.420;10.538;2023-07-30T22:28:54;15.80;75.60
80577;DHT22;69937;52.420;10.538;2023-07-30T22:33:55;15.90;75.00
80577;DHT22;69937;52.420;10.538;2023-07-30T22:38:55;16.00;75.10
80577;DHT22;69937;52.420;10.538;2023-07-30T22:43:56;16.10;75.40
80577;DHT22;69937;52.420;10.538;2023-07-30T22:48:57;16.10;75.50
80577;DHT22;69937;52.420;10.538;2023-07-30T22:53:57;16.20;73.90
80577;DHT22;69937;52.420;10.538;2023-07-30T22:58:58;16.30;73.80
80577;DHT22;69937;52.420;10.538;2023-07-30T23:03:58;16.30;73.90
80577;DHT22;69937;52.420;10.538;2023-07-30T23:08:59;16.20;73.90
80577;DHT22;69937;52.420;10.538;2023-07-30T23:13:59;16.20;73.60
80577;DHT22;69937;52.420;10.538;2023-07-30T23:19:03;16.10;74.00
80577;DHT22;69937;52.420;10.538;2023-07-30T23:24:04;15.80;75.30
80577;DHT22;69937;52.420;10.538;2023-07-30T23:29:04;15.80;75.20
80577;DHT22;69937;52.420;10.538;2023-07-30T23:34:05;15.80;75.70
80577;DHT22;69937;52.420;10.538;2023-07-30T23:39:05;15.80;76.10
80577;DHT22;69937;52.420;10.538;2023-07-30T23:44:06;15.80;75.70
80577;DHT22;69937;52.420;10.538;2023-07-30T23:49:06;15.80;75.60
80577;DHT22;69937;52.420;10.538;2023-07-30T23:54:07;15.80;75.50
80577;DHT22;69937;52.420;10.538;2023-07-30T23:59:07;15.80;75.60
